createdAt,value
2023-02-12T00:09:52.246Z,6.32
2023-02-12T00:19:54.691Z,6.25
2023-02-12T00:29:57.171Z,6.36
2023-02-12T00:39:59.690Z,6.32
2023-02-12T00:50:02.271Z,6.22
2023-02-12T01:00:05.632Z,6.01
2023-02-12T01:10:08.946Z,5.92
2023-02-12T01:20:14.818Z,5.81
2023-02-12T01:30:17.422Z,5.80
2023-02-12T01:40:19.965Z,5.98
2023-02-12T01:50:23.048Z,6.07
2023-02-12T02:00:26.028Z,6.13
2023-02-12T02:10:30.368Z,6.12
2023-02-12T02:20:57.361Z,6.05
2023-02-12T02:31:15.366Z,6.00
2023-02-12T02:41:36.388Z,5.96
2023-02-12T02:51:43.336Z,5.92
2023-02-12T03:01:52.905Z,5.76
2023-02-12T03:12:01.185Z,5.33
2023-02-12T03:22:09.310Z,5.07
2023-02-12T03:32:27.898Z,4.93
2023-02-12T03:42:43.725Z,5.04
2023-02-12T03:52:47.465Z,5.06
2023-02-12T04:02:50.634Z,4.92
2023-02-12T04:13:01.436Z,4.82
2023-02-12T04:23:42.321Z,4.73
2023-02-12T04:34:13.298Z,4.60
2023-02-12T04:44:17.324Z,4.57
2023-02-12T04:54:21.377Z,4.47
2023-02-12T05:04:23.894Z,4.67
2023-02-12T05:14:26.389Z,4.87
2023-02-12T05:24:28.911Z,4.89
2023-02-12T05:34:31.430Z,4.80
2023-02-12T05:44:33.855Z,4.59
2023-02-12T05:54:36.265Z,4.69
2023-02-12T06:04:38.790Z,4.64
2023-02-12T06:14:41.694Z,4.31
2023-02-12T06:24:44.177Z,4.12
2023-02-12T06:34:46.610Z,4.31
2023-02-12T06:44:51.312Z,4.70
2023-02-12T06:54:55.151Z,5.14
2023-02-12T07:04:57.629Z,5.80
2023-02-12T07:15:00.104Z,6.49
2023-02-12T07:25:02.699Z,6.64
2023-02-12T07:35:05.412Z,6.44
2023-02-12T07:45:08.235Z,7.22
2023-02-12T07:55:10.925Z,7.99
2023-02-12T08:05:13.426Z,7.89
2023-02-12T08:15:15.995Z,8.63
2023-02-12T08:25:18.451Z,8.90
2023-02-12T08:35:21.066Z,8.61
2023-02-12T08:45:23.583Z,8.47
2023-02-12T08:55:26.133Z,8.11
2023-02-12T09:05:28.589Z,8.10
2023-02-12T09:15:36.152Z,8.38
2023-02-12T09:25:44.098Z,8.45
2023-02-12T09:35:46.893Z,8.76
2023-02-12T09:46:21.744Z,8.58
2023-02-12T09:56:27.045Z,9.30
2023-02-12T10:06:35.834Z,10.00
2023-02-12T10:17:04.208Z,11.17
2023-02-12T10:27:20.517Z,11.85
2023-02-12T10:37:44.691Z,13.32
2023-02-12T10:47:52.607Z,13.55
2023-02-12T10:57:55.801Z,12.98
2023-02-12T11:07:58.573Z,13.39
2023-02-12T11:18:05.484Z,11.67
2023-02-12T11:28:14.430Z,12.67
2023-02-12T11:38:24.621Z,14.47
2023-02-12T11:48:31.324Z,15.14
2023-02-12T11:58:33.935Z,15.65
2023-02-12T12:08:44.876Z,14.59
2023-02-12T12:19:14.147Z,14.07
2023-02-12T12:29:33.522Z,13.08
2023-02-12T12:40:14.942Z,12.45
2023-02-12T12:50:38.923Z,13.44
2023-02-12T13:01:04.293Z,13.24
2023-02-12T13:11:44.566Z,15.57
2023-02-12T13:22:16.564Z,16.25
2023-02-12T13:32:36.452Z,10.71
2023-02-12T13:42:49.971Z,10.19
2023-02-12T13:53:26.455Z,9.97
2023-02-12T14:03:31.287Z,9.23
2023-02-12T14:13:46.047Z,8.84
2023-02-12T14:23:50.823Z,8.55
2023-02-12T14:34:15.406Z,8.41
2023-02-12T14:44:18.134Z,7.80
2023-02-12T14:54:35.631Z,7.80
2023-02-12T15:04:38.755Z,7.42
2023-02-12T15:14:45.825Z,7.38
2023-02-12T15:24:49.150Z,7.72
2023-02-12T15:34:53.302Z,7.81
2023-02-12T15:45:22.684Z,7.56
2023-02-12T15:55:28.762Z,7.15
2023-02-12T16:05:35.018Z,6.83
2023-02-12T16:15:40.389Z,6.49
2023-02-12T16:25:43.382Z,6.03
2023-02-12T16:35:45.878Z,5.64
2023-02-12T16:45:49.401Z,5.53
2023-02-12T16:55:51.983Z,5.69
2023-02-12T17:05:55.123Z,5.64
2023-02-12T17:16:01.819Z,5.39
2023-02-12T17:26:05.547Z,5.27
2023-02-12T17:36:11.207Z,5.16
2023-02-12T17:46:19.426Z,5.04
2023-02-12T17:56:25.674Z,5.11
2023-02-12T18:06:30.946Z,5.02
2023-02-12T18:16:35.062Z,4.90
2023-02-12T18:26:38.021Z,4.70
2023-02-12T18:36:40.895Z,4.54
2023-02-12T18:46:44.582Z,4.45
2023-02-12T18:56:51.230Z,4.01
2023-02-12T19:06:54.732Z,3.65
2023-02-12T19:16:57.571Z,3.29
2023-02-12T19:27:00.333Z,3.07
2023-02-12T19:37:03.210Z,3.13
2023-02-12T19:47:05.810Z,3.01
2023-02-12T19:57:09.400Z,2.88
2023-02-12T20:07:12.340Z,2.78
2023-02-12T20:17:15.166Z,2.71
2023-02-12T20:27:19.018Z,2.67
2023-02-12T20:37:21.838Z,2.65
2023-02-12T20:47:28.793Z,2.44
2023-02-12T20:57:34.706Z,2.27
2023-02-12T21:07:37.467Z,1.87
2023-02-12T21:17:41.153Z,2.27
2023-02-12T21:27:44.052Z,2.31
2023-02-12T21:37:46.818Z,2.10
2023-02-12T21:47:49.548Z,1.94
2023-02-12T21:57:52.288Z,1.60
2023-02-12T22:07:54.989Z,1.22
2023-02-12T22:17:57.470Z,0.65
2023-02-12T22:28:01.163Z,0.55
2023-02-12T22:38:03.785Z,0.67
2023-02-12T22:48:06.237Z,0.66
2023-02-12T22:58:08.808Z,0.41
2023-02-12T23:08:11.293Z,0.21
2023-02-12T23:18:13.877Z,-0.10
2023-02-12T23:28:17.494Z,-0.01
2023-02-12T23:38:20.088Z,0.16
2023-02-12T23:48:22.630Z,0.35
2023-02-12T23:58:25.097Z,0.47
